sensor_id;sensor_type;location;lat;lon;timestamp;P1;durP1;ratioP1;P2;durP2;ratioP2
22030;SDS011;11179;52.106;21.024;2023-07-13T00:00:17;20.07;;;9.70;;
22030;SDS011;11179;52.106;21.024;2023-07-13T00:02:42;18.40;;;9.90;;
22030;SDS011;11179;52.106;21.024;2023-07-13T00:05:08;18.30;;;10.60;;
22030;SDS011;11179;52.106;21.024;2023-07-13T00:07:34;16.83;;;10.00;;
22030;SDS011;11179;52.106;21.024;2023-07-13T00:10:00;26.13;;;9.37;;
22030;SDS011;11179;52.106;21.024;2023-07-13T00:14:54;16.30;;;8.90;;
22030;SDS011;11179;52.106;21.024;2023-07-13T00:17:21;14.70;;;8.77;;
22030;SDS011;11179;52.106;21.024;2023-07-13T00:19:46;13.83;;;8.83;;
22030;SDS011;11179;52.106;21.024;2023-07-13T00:22:12;16.07;;;8.43;;
22030;SDS011;11179;52.106;21.024;2023-07-13T00:24:37;18.33;;;9.43;;
22030;SDS011;11179;52.106;21.024;2023-07-13T00:27:07;14.90;;;7.73;;
22030;SDS011;11179;52.106;21.024;2023-07-13T00:29:34;14.70;;;8.53;;
22030;SDS011;11179;52.106;21.024;2023-07-13T00:32:00;18.10;;;9.00;;
22030;SDS011;11179;52.106;21.024;2023-07-13T00:34:25;14.97;;;8.50;;
22030;SDS011;11179;52.106;21.024;2023-07-13T00:36:51;14.00;;;8.57;;
22030;SDS011;11179;52.106;21.024;2023-07-13T00:39:16;18.23;;;8.90;;
22030;SDS011;11179;52.106;21.024;2023-07-13T00:41:41;20.13;;;8.20;;
22030;SDS011;11179;52.106;21.024;2023-07-13T00:44:12;18.73;;;8.60;;
22030;SDS011;11179;52.106;21.024;2023-07-13T00:46:39;16.83;;;9.30;;
22030;SDS011;11179;52.106;21.024;2023-07-13T00:49:05;24.03;;;9.33;;
22030;SDS011;11179;52.106;21.024;2023-07-13T00:51:34;15.80;;;9.27;;
22030;SDS011;11179;52.106;21.024;2023-07-13T00:54:06;17.10;;;9.83;;
22030;SDS011;11179;52.106;21.024;2023-07-13T00:56:36;16.20;;;8.70;;
22030;SDS011;11179;52.106;21.024;2023-07-13T00:59:02;18.30;;;8.67;;
22030;SDS011;11179;52.106;21.024;2023-07-13T01:01:30;21.73;;;8.40;;
22030;SDS011;11179;52.106;21.024;2023-07-13T01:03:55;17.37;;;8.27;;
22030;SDS011;11179;52.106;21.024;2023-07-13T01:06:22;18.73;;;9.23;;
22030;SDS011;11179;52.106;21.024;2023-07-13T01:08:47;15.60;;;8.67;;
22030;SDS011;11179;52.106;21.024;2023-07-13T01:11:13;19.67;;;8.80;;
22030;SDS011;11179;52.106;21.024;2023-07-13T01:13:45;20.80;;;8.80;;
22030;SDS011;11179;52.106;21.024;2023-07-13T01:16:15;16.03;;;8.77;;
22030;SDS011;11179;52.106;21.024;2023-07-13T01:18:46;16.33;;;9.07;;
22030;SDS011;11179;52.106;21.024;2023-07-13T01:21:12;19.27;;;10.23;;
22030;SDS011;11179;52.106;21.024;2023-07-13T01:23:37;15.10;;;9.10;;
22030;SDS011;11179;52.106;21.024;2023-07-13T01:26:02;18.97;;;9.90;;
22030;SDS011;11179;52.106;21.024;2023-07-13T01:28:28;13.67;;;8.50;;
22030;SDS011;11179;52.106;21.024;2023-07-13T01:30:54;17.30;;;9.17;;
22030;SDS011;11179;52.106;21.024;2023-07-13T01:33:22;21.63;;;9.20;;
22030;SDS011;11179;52.106;21.024;2023-07-13T01:35:47;18.40;;;8.83;;
22030;SDS011;11179;52.106;21.024;2023-07-13T01:38:14;18.40;;;10.47;;
22030;SDS011;11179;52.106;21.024;2023-07-13T01:40:40;14.70;;;8.50;;
22030;SDS011;11179;52.106;21.024;2023-07-13T01:43:06;16.73;;;9.63;;
22030;SDS011;11179;52.106;21.024;2023-07-13T01:45:31;19.13;;;9.80;;
22030;SDS011;11179;52.106;21.024;2023-07-13T01:47:56;19.93;;;10.00;;
22030;SDS011;11179;52.106;21.024;2023-07-13T01:50:23;18.67;;;9.53;;
22030;SDS011;11179;52.106;21.024;2023-07-13T01:52:48;16.07;;;9.27;;
22030;SDS011;11179;52.106;21.024;2023-07-13T01:55:14;16.80;;;9.00;;
22030;SDS011;11179;52.106;21.024;2023-07-13T01:57:39;15.20;;;9.43;;
22030;SDS011;11179;52.106;21.024;2023-07-13T02:00:05;17.27;;;9.40;;
22030;SDS011;11179;52.106;21.024;2023-07-13T02:02:32;15.53;;;8.77;;
22030;SDS011;11179;52.106;21.024;2023-07-13T02:04:57;18.10;;;10.70;;
22030;SDS011;11179;52.106;21.024;2023-07-13T02:07:22;17.43;;;8.87;;
22030;SDS011;11179;52.106;21.024;2023-07-13T02:09:48;13.60;;;8.10;;
22030;SDS011;11179;52.106;21.024;2023-07-13T02:12:13;16.00;;;8.20;;
22030;SDS011;11179;52.106;21.024;2023-07-13T02:14:38;14.80;;;8.70;;
22030;SDS011;11179;52.106;21.024;2023-07-13T02:17:04;15.43;;;8.63;;
22030;SDS011;11179;52.106;21.024;2023-07-13T02:19:30;20.03;;;9.80;;
22030;SDS011;11179;52.106;21.024;2023-07-13T02:21:55;23.13;;;9.47;;
22030;SDS011;11179;52.106;21.024;2023-07-13T02:24:20;17.80;;;9.73;;
22030;SDS011;11179;52.106;21.024;2023-07-13T02:26:46;15.43;;;8.80;;
22030;SDS011;11179;52.106;21.024;2023-07-13T02:29:12;16.40;;;8.63;;
22030;SDS011;11179;52.106;21.024;2023-07-13T02:31:38;18.30;;;9.83;;
22030;SDS011;11179;52.106;21.024;2023-07-13T02:34:03;16.33;;;8.70;;
22030;SDS011;11179;52.106;21.024;2023-07-13T02:36:29;16.80;;;8.90;;
22030;SDS011;11179;52.106;21.024;2023-07-13T02:38:55;17.23;;;8.80;;
22030;SDS011;11179;52.106;21.024;2023-07-13T02:41:20;16.70;;;9.60;;
22030;SDS011;11179;52.106;21.024;2023-07-13T02:43:47;17.00;;;8.97;;
22030;SDS011;11179;52.106;21.024;2023-07-13T02:46:13;16.07;;;9.23;;
22030;SDS011;11179;52.106;21.024;2023-07-13T02:48:39;17.17;;;9.50;;
22030;SDS011;11179;52.106;21.024;2023-07-13T02:51:05;20.40;;;8.97;;
22030;SDS011;11179;52.106;21.024;2023-07-13T02:53:31;14.63;;;8.30;;
22030;SDS011;11179;52.106;21.024;2023-07-13T02:55:56;21.13;;;9.73;;
22030;SDS011;11179;52.106;21.024;2023-07-13T02:58:21;14.50;;;8.80;;
22030;SDS011;11179;52.106;21.024;2023-07-13T03:00:47;16.60;;;9.43;;
22030;SDS011;11179;52.106;21.024;2023-07-13T03:03:15;17.60;;;9.53;;
22030;SDS011;11179;52.106;21.024;2023-07-13T03:05:41;21.30;;;9.73;;
22030;SDS011;11179;52.106;21.024;2023-07-13T03:08:08;18.30;;;9.33;;
22030;SDS011;11179;52.106;21.024;2023-07-13T03:10:34;15.53;;;8.90;;
22030;SDS011;11179;52.106;21.024;2023-07-13T03:12:59;17.70;;;8.70;;
22030;SDS011;11179;52.106;21.024;2023-07-13T03:15:25;14.97;;;9.30;;
22030;SDS011;11179;52.106;21.024;2023-07-13T03:17:50;17.20;;;9.40;;
22030;SDS011;11179;52.106;21.024;2023-07-13T03:20:15;14.80;;;9.00;;
22030;SDS011;11179;52.106;21.024;2023-07-13T03:22:41;18.73;;;8.63;;
22030;SDS011;11179;52.106;21.024;2023-07-13T03:25:07;17.27;;;8.90;;
22030;SDS011;11179;52.106;21.024;2023-07-13T03:27:32;19.77;;;9.93;;
22030;SDS011;11179;52.106;21.024;2023-07-13T03:29:58;18.23;;;9.13;;
22030;SDS011;11179;52.106;21.024;2023-07-13T03:32:23;16.27;;;9.70;;
22030;SDS011;11179;52.106;21.024;2023-07-13T03:34:48;17.73;;;10.00;;
22030;SDS011;11179;52.106;21.024;2023-07-13T03:37:14;16.10;;;9.63;;
22030;SDS011;11179;52.106;21.024;2023-07-13T03:39:39;14.10;;;8.50;;
22030;SDS011;11179;52.106;21.024;2023-07-13T03:42:04;19.93;;;10.50;;
22030;SDS011;11179;52.106;21.024;2023-07-13T03:44:30;15.67;;;8.57;;
22030;SDS011;11179;52.106;21.024;2023-07-13T03:46:55;19.37;;;9.00;;
22030;SDS011;11179;52.106;21.024;2023-07-13T03:49:21;15.67;;;9.63;;
22030;SDS011;11179;52.106;21.024;2023-07-13T03:51:46;21.70;;;9.10;;
22030;SDS011;11179;52.106;21.024;2023-07-13T03:54:11;20.47;;;10.07;;
22030;SDS011;11179;52.106;21.024;2023-07-13T03:56:37;20.73;;;10.40;;
22030;SDS011;11179;52.106;21.024;2023-07-13T03:59:02;19.63;;;9.50;;
22030;SDS011;11179;52.106;21.024;2023-07-13T04:01:28;15.10;;;9.23;;
22030;SDS011;11179;52.106;21.024;2023-07-13T04:03:53;16.93;;;10.30;;
22030;SDS011;11179;52.106;21.024;2023-07-13T04:06:20;16.30;;;9.23;;
22030;SDS011;11179;52.106;21.024;2023-07-13T04:08:52;15.80;;;9.30;;
22030;SDS011;11179;52.106;21.024;2023-07-13T04:11:20;18.63;;;10.30;;
22030;SDS011;11179;52.106;21.024;2023-07-13T04:13:47;17.63;;;10.40;;
22030;SDS011;11179;52.106;21.024;2023-07-13T04:16:13;20.20;;;10.40;;
22030;SDS011;11179;52.106;21.024;2023-07-13T04:18:40;20.70;;;10.77;;
22030;SDS011;11179;52.106;21.024;2023-07-13T04:21:06;17.20;;;10.90;;
22030;SDS011;11179;52.106;21.024;2023-07-13T04:23:32;17.67;;;10.80;;
22030;SDS011;11179;52.106;21.024;2023-07-13T04:25:57;18.67;;;10.67;;
22030;SDS011;11179;52.106;21.024;2023-07-13T04:28:23;19.90;;;10.57;;
22030;SDS011;11179;52.106;21.024;2023-07-13T04:30:51;21.93;;;11.77;;
22030;SDS011;11179;52.106;21.024;2023-07-13T04:33:17;32.57;;;11.40;;
22030;SDS011;11179;52.106;21.024;2023-07-13T04:35:47;20.93;;;11.63;;
22030;SDS011;11179;52.106;21.024;2023-07-13T04:38:13;18.30;;;11.90;;
22030;SDS011;11179;52.106;21.024;2023-07-13T04:40:39;18.63;;;11.83;;
22030;SDS011;11179;52.106;21.024;2023-07-13T04:43:05;21.70;;;11.27;;
22030;SDS011;11179;52.106;21.024;2023-07-13T04:45:30;21.97;;;11.23;;
22030;SDS011;11179;52.106;21.024;2023-07-13T04:47:56;22.93;;;11.30;;
22030;SDS011;11179;52.106;21.024;2023-07-13T04:50:21;21.30;;;10.83;;
22030;SDS011;11179;52.106;21.024;2023-07-13T04:52:48;24.83;;;11.03;;
22030;SDS011;11179;52.106;21.024;2023-07-13T04:55:17;22.90;;;12.07;;
22030;SDS011;11179;52.106;21.024;2023-07-13T04:57:44;24.93;;;12.83;;
22030;SDS011;11179;52.106;21.024;2023-07-13T05:00:10;25.57;;;10.90;;
22030;SDS011;11179;52.106;21.024;2023-07-13T05:02:37;26.90;;;12.57;;
22030;SDS011;11179;52.106;21.024;2023-07-13T05:05:03;26.63;;;12.67;;
22030;SDS011;11179;52.106;21.024;2023-07-13T05:07:28;34.40;;;12.20;;
22030;SDS011;11179;52.106;21.024;2023-07-13T05:09:54;33.73;;;13.10;;
22030;SDS011;11179;52.106;21.024;2023-07-13T05:12:19;27.90;;;13.60;;
22030;SDS011;11179;52.106;21.024;2023-07-13T05:14:44;28.20;;;12.27;;
22030;SDS011;11179;52.106;21.024;2023-07-13T05:17:10;36.70;;;11.17;;
22030;SDS011;11179;52.106;21.024;2023-07-13T05:19:35;26.60;;;12.10;;
22030;SDS011;11179;52.106;21.024;2023-07-13T05:22:01;35.87;;;12.90;;
22030;SDS011;11179;52.106;21.024;2023-07-13T05:24:28;27.70;;;12.53;;
22030;SDS011;11179;52.106;21.024;2023-07-13T05:26:53;34.77;;;14.13;;
22030;SDS011;11179;52.106;21.024;2023-07-13T05:29:19;23.13;;;11.97;;
22030;SDS011;11179;52.106;21.024;2023-07-13T05:31:45;29.53;;;13.50;;
22030;SDS011;11179;52.106;21.024;2023-07-13T05:34:10;37.93;;;13.50;;
22030;SDS011;11179;52.106;21.024;2023-07-13T05:36:35;27.30;;;12.73;;
22030;SDS011;11179;52.106;21.024;2023-07-13T05:39:02;27.37;;;12.40;;
22030;SDS011;11179;52.106;21.024;2023-07-13T05:41:28;32.97;;;11.37;;
22030;SDS011;11179;52.106;21.024;2023-07-13T05:43:54;32.67;;;12.53;;
22030;SDS011;11179;52.106;21.024;2023-07-13T05:46:19;30.40;;;14.00;;
22030;SDS011;11179;52.106;21.024;2023-07-13T05:48:44;33.87;;;14.50;;
22030;SDS011;11179;52.106;21.024;2023-07-13T05:51:09;37.67;;;13.47;;
22030;SDS011;11179;52.106;21.024;2023-07-13T05:53:35;36.97;;;13.83;;
22030;SDS011;11179;52.106;21.024;2023-07-13T05:56:00;37.73;;;13.80;;
22030;SDS011;11179;52.106;21.024;2023-07-13T05:58:26;26.53;;;13.80;;
22030;SDS011;11179;52.106;21.024;2023-07-13T06:00:58;32.70;;;13.80;;
22030;SDS011;11179;52.106;21.024;2023-07-13T06:03:28;24.40;;;12.30;;
22030;SDS011;11179;52.106;21.024;2023-07-13T06:05:54;36.60;;;13.43;;
22030;SDS011;11179;52.106;21.024;2023-07-13T06:08:19;27.20;;;13.57;;
22030;SDS011;11179;52.106;21.024;2023-07-13T06:10:44;25.03;;;12.57;;
22030;SDS011;11179;52.106;21.024;2023-07-13T06:13:10;24.70;;;13.87;;
22030;SDS011;11179;52.106;21.024;2023-07-13T06:15:35;24.37;;;14.07;;
22030;SDS011;11179;52.106;21.024;2023-07-13T06:18:00;33.80;;;14.40;;
22030;SDS011;11179;52.106;21.024;2023-07-13T06:20:26;25.27;;;14.27;;
22030;SDS011;11179;52.106;21.024;2023-07-13T06:22:51;26.37;;;13.77;;
22030;SDS011;11179;52.106;21.024;2023-07-13T06:25:16;19.97;;;12.13;;
22030;SDS011;11179;52.106;21.024;2023-07-13T06:27:42;33.70;;;15.83;;
22030;SDS011;11179;52.106;21.024;2023-07-13T06:30:08;25.67;;;13.23;;
22030;SDS011;11179;52.106;21.024;2023-07-13T06:32:34;17.67;;;11.80;;
22030;SDS011;11179;52.106;21.024;2023-07-13T06:34:59;27.17;;;11.70;;
22030;SDS011;11179;52.106;21.024;2023-07-13T06:37:24;20.50;;;12.57;;
22030;SDS011;11179;52.106;21.024;2023-07-13T06:39:50;19.47;;;12.20;;
22030;SDS011;11179;52.106;21.024;2023-07-13T06:42:16;22.27;;;12.23;;
22030;SDS011;11179;52.106;21.024;2023-07-13T06:44:41;22.30;;;13.63;;
22030;SDS011;11179;52.106;21.024;2023-07-13T06:47:07;23.60;;;13.90;;
22030;SDS011;11179;52.106;21.024;2023-07-13T06:49:32;19.87;;;11.40;;
22030;SDS011;11179;52.106;21.024;2023-07-13T06:51:57;19.30;;;10.70;;
22030;SDS011;11179;52.106;21.024;2023-07-13T06:54:23;15.40;;;9.30;;
22030;SDS011;11179;52.106;21.024;2023-07-13T06:56:48;18.00;;;10.03;;
22030;SDS011;11179;52.106;21.024;2023-07-13T06:59:13;17.27;;;9.23;;
22030;SDS011;11179;52.106;21.024;2023-07-13T07:01:39;16.07;;;9.27;;
22030;SDS011;11179;52.106;21.024;2023-07-13T07:04:04;13.83;;;9.17;;
22030;SDS011;11179;52.106;21.024;2023-07-13T07:06:29;13.10;;;7.57;;
22030;SDS011;11179;52.106;21.024;2023-07-13T07:08:55;12.10;;;7.23;;
22030;SDS011;11179;52.106;21.024;2023-07-13T07:11:23;13.10;;;6.90;;
22030;SDS011;11179;52.106;21.024;2023-07-13T07:13:50;14.80;;;7.23;;
22030;SDS011;11179;52.106;21.024;2023-07-13T07:16:17;12.63;;;6.97;;
22030;SDS011;11179;52.106;21.024;2023-07-13T07:18:43;18.17;;;7.03;;
22030;SDS011;11179;52.106;21.024;2023-07-13T07:21:09;10.43;;;5.73;;
22030;SDS011;11179;52.106;21.024;2023-07-13T07:23:35;20.10;;;7.77;;
22030;SDS011;11179;52.106;21.024;2023-07-13T07:26:00;17.57;;;7.43;;
22030;SDS011;11179;52.106;21.024;2023-07-13T07:28:25;18.73;;;6.77;;
22030;SDS011;11179;52.106;21.024;2023-07-13T07:30:53;15.00;;;7.10;;
22030;SDS011;11179;52.106;21.024;2023-07-13T07:33:20;13.37;;;7.00;;
22030;SDS011;11179;52.106;21.024;2023-07-13T07:35:45;15.30;;;7.63;;
22030;SDS011;11179;52.106;21.024;2023-07-13T07:38:10;12.03;;;6.00;;
22030;SDS011;11179;52.106;21.024;2023-07-13T07:40:37;9.87;;;6.17;;
22030;SDS011;11179;52.106;21.024;2023-07-13T07:43:03;11.17;;;5.20;;
22030;SDS011;11179;52.106;21.024;2023-07-13T07:45:28;9.80;;;4.90;;
22030;SDS011;11179;52.106;21.024;2023-07-13T07:47:54;10.90;;;4.70;;
22030;SDS011;11179;52.106;21.024;2023-07-13T07:50:23;10.60;;;4.43;;
22030;SDS011;11179;52.106;21.024;2023-07-13T07:52:50;11.03;;;5.17;;
22030;SDS011;11179;52.106;21.024;2023-07-13T07:55:15;9.43;;;4.80;;
22030;SDS011;11179;52.106;21.024;2023-07-13T07:57:40;10.30;;;4.63;;
22030;SDS011;11179;52.106;21.024;2023-07-13T08:00:06;9.60;;;4.70;;
22030;SDS011;11179;52.106;21.024;2023-07-13T08:02:32;7.80;;;3.30;;
22030;SDS011;11179;52.106;21.024;2023-07-13T08:04:57;8.40;;;4.87;;
22030;SDS011;11179;52.106;21.024;2023-07-13T08:07:22;10.07;;;4.87;;
22030;SDS011;11179;52.106;21.024;2023-07-13T08:09:48;8.77;;;4.40;;
22030;SDS011;11179;52.106;21.024;2023-07-13T08:12:17;10.03;;;5.53;;
22030;SDS011;11179;52.106;21.024;2023-07-13T08:14:42;14.10;;;6.53;;
22030;SDS011;11179;52.106;21.024;2023-07-13T08:17:07;15.03;;;6.70;;
22030;SDS011;11179;52.106;21.024;2023-07-13T08:19:33;15.43;;;6.37;;
22030;SDS011;11179;52.106;21.024;2023-07-13T08:21:58;15.33;;;6.50;;
22030;SDS011;11179;52.106;21.024;2023-07-13T08:24:23;12.80;;;6.70;;
22030;SDS011;11179;52.106;21.024;2023-07-13T08:26:50;17.20;;;7.10;;
22030;SDS011;11179;52.106;21.024;2023-07-13T08:29:16;11.40;;;6.23;;
22030;SDS011;11179;52.106;21.024;2023-07-13T08:31:41;14.60;;;7.43;;
22030;SDS011;11179;52.106;21.024;2023-07-13T08:34:06;10.70;;;6.97;;
22030;SDS011;11179;52.106;21.024;2023-07-13T08:36:32;14.30;;;7.87;;
22030;SDS011;11179;52.106;21.024;2023-07-13T08:38:57;16.30;;;7.57;;
22030;SDS011;11179;52.106;21.024;2023-07-13T08:41:22;18.37;;;7.20;;
22030;SDS011;11179;52.106;21.024;2023-07-13T08:43:49;12.50;;;7.53;;
22030;SDS011;11179;52.106;21.024;2023-07-13T08:46:33;11.07;;;6.77;;
22030;SDS011;11179;52.106;21.024;2023-07-13T08:49:02;13.00;;;7.77;;
22030;SDS011;11179;52.106;21.024;2023-07-13T08:51:44;15.53;;;8.90;;
22030;SDS011;11179;52.106;21.024;2023-07-13T08:54:20;12.47;;;7.97;;
22030;SDS011;11179;52.106;21.024;2023-07-13T08:56:52;11.53;;;7.23;;
22030;SDS011;11179;52.106;21.024;2023-07-13T08:59:19;13.23;;;8.10;;
22030;SDS011;11179;52.106;21.024;2023-07-13T09:04:29;16.00;;;7.70;;
22030;SDS011;11179;52.106;21.024;2023-07-13T09:17:57;15.10;;;8.67;;
22030;SDS011;11179;52.106;21.024;2023-07-13T09:20:40;12.00;;;7.83;;
22030;SDS011;11179;52.106;21.024;2023-07-13T09:23:13;13.70;;;7.87;;
22030;SDS011;11179;52.106;21.024;2023-07-13T09:25:42;13.73;;;8.33;;
22030;SDS011;11179;52.106;21.024;2023-07-13T09:28:15;13.00;;;6.80;;
22030;SDS011;11179;52.106;21.024;2023-07-13T09:33:41;13.80;;;8.50;;
22030;SDS011;11179;52.106;21.024;2023-07-13T09:36:16;14.30;;;8.93;;
22030;SDS011;11179;52.106;21.024;2023-07-13T09:38:44;15.83;;;9.00;;
22030;SDS011;11179;52.106;21.024;2023-07-13T09:43:38;13.13;;;7.50;;
22030;SDS011;11179;52.106;21.024;2023-07-13T09:46:04;16.67;;;8.03;;
22030;SDS011;11179;52.106;21.024;2023-07-13T09:48:35;13.80;;;7.80;;
22030;SDS011;11179;52.106;21.024;2023-07-13T09:51:13;13.80;;;7.30;;
22030;SDS011;11179;52.106;21.024;2023-07-13T09:53:40;12.60;;;7.70;;
22030;SDS011;11179;52.106;21.024;2023-07-13T09:56:18;10.73;;;7.23;;
22030;SDS011;11179;52.106;21.024;2023-07-13T09:58:48;13.20;;;8.10;;
22030;SDS011;11179;52.106;21.024;2023-07-13T10:01:13;13.63;;;6.73;;
22030;SDS011;11179;52.106;21.024;2023-07-13T10:03:40;13.93;;;7.13;;
22030;SDS011;11179;52.106;21.024;2023-07-13T10:06:19;13.07;;;7.80;;
22030;SDS011;11179;52.106;21.024;2023-07-13T10:08:47;12.30;;;7.63;;
22030;SDS011;11179;52.106;21.024;2023-07-13T10:11:34;14.63;;;8.47;;
22030;SDS011;11179;52.106;21.024;2023-07-13T10:14:01;15.60;;;8.17;;
22030;SDS011;11179;52.106;21.024;2023-07-13T10:16:39;13.90;;;7.90;;
22030;SDS011;11179;52.106;21.024;2023-07-13T10:19:19;15.60;;;7.50;;
22030;SDS011;11179;52.106;21.024;2023-07-13T10:21:50;12.60;;;7.07;;
22030;SDS011;11179;52.106;21.024;2023-07-13T10:24:23;10.27;;;5.37;;
22030;SDS011;11179;52.106;21.024;2023-07-13T10:26:57;13.67;;;5.43;;
22030;SDS011;11179;52.106;21.024;2023-07-13T10:29:29;10.83;;;4.90;;
22030;SDS011;11179;52.106;21.024;2023-07-13T10:32:01;10.07;;;4.73;;
22030;SDS011;11179;52.106;21.024;2023-07-13T10:34:26;11.17;;;4.63;;
22030;SDS011;11179;52.106;21.024;2023-07-13T10:36:52;9.20;;;4.17;;
22030;SDS011;11179;52.106;21.024;2023-07-13T10:39:28;12.50;;;5.60;;
22030;SDS011;11179;52.106;21.024;2023-07-13T10:42:05;10.50;;;4.80;;
22030;SDS011;11179;52.106;21.024;2023-07-13T10:44:37;13.93;;;4.50;;
22030;SDS011;11179;52.106;21.024;2023-07-13T10:47:07;8.70;;;4.00;;
22030;SDS011;11179;52.106;21.024;2023-07-13T10:49:36;10.37;;;4.60;;
22030;SDS011;11179;52.106;21.024;2023-07-13T10:52:03;9.10;;;4.53;;
22030;SDS011;11179;52.106;21.024;2023-07-13T10:59:37;8.47;;;3.60;;
22030;SDS011;11179;52.106;21.024;2023-07-13T11:04:38;17.13;;;5.70;;
22030;SDS011;11179;52.106;21.024;2023-07-13T11:07:20;9.93;;;4.30;;
22030;SDS011;11179;52.106;21.024;2023-07-13T11:09:51;16.17;;;7.03;;
22030;SDS011;11179;52.106;21.024;2023-07-13T11:20:23;18.20;;;7.10;;
22030;SDS011;11179;52.106;21.024;2023-07-13T11:25:38;16.90;;;6.93;;
22030;SDS011;11179;52.106;21.024;2023-07-13T11:35:31;13.13;;;6.00;;
22030;SDS011;11179;52.106;21.024;2023-07-13T11:38:00;14.13;;;6.57;;
22030;SDS011;11179;52.106;21.024;2023-07-13T11:40:26;16.10;;;6.40;;
22030;SDS011;11179;52.106;21.024;2023-07-13T11:43:01;15.10;;;6.13;;
22030;SDS011;11179;52.106;21.024;2023-07-13T11:45:27;11.83;;;5.87;;
22030;SDS011;11179;52.106;21.024;2023-07-13T11:47:53;12.23;;;6.07;;
22030;SDS011;11179;52.106;21.024;2023-07-13T11:50:20;16.10;;;6.37;;
22030;SDS011;11179;52.106;21.024;2023-07-13T11:52:47;15.17;;;6.60;;
22030;SDS011;11179;52.106;21.024;2023-07-13T11:55:16;11.77;;;6.17;;
22030;SDS011;11179;52.106;21.024;2023-07-13T11:57:50;12.73;;;6.83;;
22030;SDS011;11179;52.106;21.024;2023-07-13T12:00:25;11.97;;;7.13;;
22030;SDS011;11179;52.106;21.024;2023-07-13T12:02:54;18.37;;;7.73;;
22030;SDS011;11179;52.106;21.024;2023-07-13T12:05:22;13.33;;;7.63;;
22030;SDS011;11179;52.106;21.024;2023-07-13T12:07:49;14.60;;;7.93;;
22030;SDS011;11179;52.106;21.024;2023-07-13T12:12:47;14.67;;;8.70;;
22030;SDS011;11179;52.106;21.024;2023-07-13T12:15:23;14.50;;;8.63;;
22030;SDS011;11179;52.106;21.024;2023-07-13T12:17:53;14.30;;;8.60;;
22030;SDS011;11179;52.106;21.024;2023-07-13T12:20:25;17.47;;;9.87;;
22030;SDS011;11179;52.106;21.024;2023-07-13T12:22:52;22.33;;;7.80;;
22030;SDS011;11179;52.106;21.024;2023-07-13T12:25:18;21.70;;;9.47;;
22030;SDS011;11179;52.106;21.024;2023-07-13T12:27:48;20.30;;;9.70;;
22030;SDS011;11179;52.106;21.024;2023-07-13T12:30:21;19.23;;;8.60;;
22030;SDS011;11179;52.106;21.024;2023-07-13T12:33:02;16.37;;;8.17;;
22030;SDS011;11179;52.106;21.024;2023-07-13T12:35:41;23.00;;;8.33;;
22030;SDS011;11179;52.106;21.024;2023-07-13T12:38:12;19.03;;;8.00;;
22030;SDS011;11179;52.106;21.024;2023-07-13T12:40:37;15.73;;;7.13;;
22030;SDS011;11179;52.106;21.024;2023-07-13T12:43:05;14.97;;;7.10;;
22030;SDS011;11179;52.106;21.024;2023-07-13T12:45:36;14.33;;;7.53;;
22030;SDS011;11179;52.106;21.024;2023-07-13T12:48:06;14.13;;;7.40;;
22030;SDS011;11179;52.106;21.024;2023-07-13T12:50:40;16.03;;;7.10;;
22030;SDS011;11179;52.106;21.024;2023-07-13T12:53:19;14.63;;;7.60;;
22030;SDS011;11179;52.106;21.024;2023-07-13T12:55:49;14.33;;;7.90;;
22030;SDS011;11179;52.106;21.024;2023-07-13T12:58:30;18.47;;;7.70;;
22030;SDS011;11179;52.106;21.024;2023-07-13T13:01:01;15.40;;;7.30;;
22030;SDS011;11179;52.106;21.024;2023-07-13T13:03:32;14.57;;;7.80;;
22030;SDS011;11179;52.106;21.024;2023-07-13T13:06:04;14.17;;;7.40;;
22030;SDS011;11179;52.106;21.024;2023-07-13T13:08:32;17.13;;;7.63;;
22030;SDS011;11179;52.106;21.024;2023-07-13T13:10:59;18.77;;;7.97;;
22030;SDS011;11179;52.106;21.024;2023-07-13T13:13:24;13.47;;;6.80;;
22030;SDS011;11179;52.106;21.024;2023-07-13T13:15:50;15.83;;;7.17;;
22030;SDS011;11179;52.106;21.024;2023-07-13T13:18:17;20.60;;;8.20;;
22030;SDS011;11179;52.106;21.024;2023-07-13T13:20:46;15.43;;;7.60;;
22030;SDS011;11179;52.106;21.024;2023-07-13T13:23:13;17.27;;;8.13;;
22030;SDS011;11179;52.106;21.024;2023-07-13T13:25:42;23.73;;;8.37;;
22030;SDS011;11179;52.106;21.024;2023-07-13T13:28:14;14.63;;;8.90;;
22030;SDS011;11179;52.106;21.024;2023-07-13T13:30:41;17.47;;;8.60;;
22030;SDS011;11179;52.106;21.024;2023-07-13T13:33:08;16.80;;;9.53;;
22030;SDS011;11179;52.106;21.024;2023-07-13T13:35:37;19.20;;;9.40;;
22030;SDS011;11179;52.106;21.024;2023-07-13T13:38:07;17.63;;;9.00;;
22030;SDS011;11179;52.106;21.024;2023-07-13T13:40:36;17.73;;;9.30;;
22030;SDS011;11179;52.106;21.024;2023-07-13T13:43:01;25.83;;;10.40;;
22030;SDS011;11179;52.106;21.024;2023-07-13T13:45:26;19.30;;;9.47;;
22030;SDS011;11179;52.106;21.024;2023-07-13T13:47:52;21.27;;;10.00;;
22030;SDS011;11179;52.106;21.024;2023-07-13T13:50:19;24.57;;;10.20;;
22030;SDS011;11179;52.106;21.024;2023-07-13T13:52:47;21.30;;;10.07;;
22030;SDS011;11179;52.106;21.024;2023-07-13T13:55:13;21.03;;;10.63;;
22030;SDS011;11179;52.106;21.024;2023-07-13T13:57:39;21.93;;;10.10;;
22030;SDS011;11179;52.106;21.024;2023-07-13T14:00:04;23.20;;;10.90;;
22030;SDS011;11179;52.106;21.024;2023-07-13T14:02:30;18.80;;;11.03;;
22030;SDS011;11179;52.106;21.024;2023-07-13T14:04:58;18.83;;;11.00;;
22030;SDS011;11179;52.106;21.024;2023-07-13T14:07:25;21.23;;;11.13;;
22030;SDS011;11179;52.106;21.024;2023-07-13T14:09:55;17.53;;;10.20;;
22030;SDS011;11179;52.106;21.024;2023-07-13T14:12:22;15.50;;;8.70;;
22030;SDS011;11179;52.106;21.024;2023-07-13T14:14:51;20.20;;;10.63;;
22030;SDS011;11179;52.106;21.024;2023-07-13T14:17:23;12.50;;;7.60;;
22030;SDS011;11179;52.106;21.024;2023-07-13T14:19:51;19.00;;;8.10;;
22030;SDS011;11179;52.106;21.024;2023-07-13T14:22:21;13.73;;;8.67;;
22030;SDS011;11179;52.106;21.024;2023-07-13T14:24:47;15.70;;;8.80;;
22030;SDS011;11179;52.106;21.024;2023-07-13T14:27:14;14.40;;;7.47;;
22030;SDS011;11179;52.106;21.024;2023-07-13T14:29:39;21.03;;;9.00;;
22030;SDS011;11179;52.106;21.024;2023-07-13T14:32:08;12.77;;;7.70;;
22030;SDS011;11179;52.106;21.024;2023-07-13T14:34:38;14.47;;;8.73;;
22030;SDS011;11179;52.106;21.024;2023-07-13T14:37:03;19.80;;;9.10;;
22030;SDS011;11179;52.106;21.024;2023-07-13T14:39:30;13.20;;;7.90;;
22030;SDS011;11179;52.106;21.024;2023-07-13T14:41:56;12.73;;;6.90;;
22030;SDS011;11179;52.106;21.024;2023-07-13T14:44:29;13.43;;;6.50;;
22030;SDS011;11179;52.106;21.024;2023-07-13T14:46:56;22.33;;;7.00;;
22030;SDS011;11179;52.106;21.024;2023-07-13T14:51:51;11.63;;;6.33;;
22030;SDS011;11179;52.106;21.024;2023-07-13T14:54:17;12.93;;;6.97;;
22030;SDS011;11179;52.106;21.024;2023-07-13T14:56:42;11.10;;;6.10;;
22030;SDS011;11179;52.106;21.024;2023-07-13T14:59:08;12.67;;;6.27;;
22030;SDS011;11179;52.106;21.024;2023-07-13T15:01:34;24.37;;;7.87;;
22030;SDS011;11179;52.106;21.024;2023-07-13T15:04:00;19.80;;;6.70;;
22030;SDS011;11179;52.106;21.024;2023-07-13T15:06:26;11.37;;;5.47;;
22030;SDS011;11179;52.106;21.024;2023-07-13T15:08:52;13.13;;;6.27;;
22030;SDS011;11179;52.106;21.024;2023-07-13T15:11:17;11.47;;;6.23;;